createdAt,value
2023-04-25T00:00:16.850Z,9.92
2023-04-25T00:02:43.874Z,9.91
2023-04-25T00:05:10.782Z,9.51
2023-04-25T00:07:37.462Z,9.63
2023-04-25T00:10:04.681Z,9.64
2023-04-25T00:12:31.284Z,9.58
2023-04-25T00:14:58.176Z,9.31
2023-04-25T00:17:25.834Z,8.43
2023-04-25T00:19:52.605Z,9.17
2023-04-25T00:22:19.402Z,9.97
2023-04-25T00:24:46.003Z,9.32
2023-04-25T00:27:12.601Z,9.61
2023-04-25T00:29:39.194Z,9.84
2023-04-25T00:32:06.013Z,9.66
2023-04-25T00:34:32.651Z,8.92
2023-04-25T00:36:59.579Z,9.52
2023-04-25T00:39:26.208Z,9.73
2023-04-25T00:41:54.261Z,10.05
2023-04-25T00:44:21.021Z,9.77
2023-04-25T00:46:49.266Z,9.25
2023-04-25T00:49:17.905Z,10.15
2023-04-25T00:51:47.902Z,9.96
2023-04-25T00:54:15.327Z,9.75
2023-04-25T00:56:42.963Z,9.69
2023-04-25T00:59:10.813Z,9.74
2023-04-25T01:01:37.479Z,9.85
2023-04-25T01:04:04.319Z,9.76
2023-04-25T01:06:31.231Z,9.90
2023-04-25T01:08:57.949Z,8.69
2023-04-25T01:11:24.533Z,9.84
2023-04-25T01:13:51.358Z,9.73
2023-04-25T01:16:18.225Z,9.70
2023-04-25T01:18:44.885Z,9.57
2023-04-25T01:21:12.148Z,9.28
2023-04-25T01:23:39.590Z,9.27
2023-04-25T01:26:06.219Z,9.19
2023-04-25T01:28:33.939Z,8.99
2023-04-25T01:31:00.621Z,9.18
2023-04-25T01:33:27.197Z,9.25
2023-04-25T01:35:53.888Z,7.97
2023-04-25T01:38:20.555Z,8.99
2023-04-25T01:40:48.256Z,9.17
2023-04-25T01:43:15.402Z,9.57
2023-04-25T01:45:42.651Z,7.57
2023-04-25T01:48:10.396Z,7.95
2023-04-25T01:50:37.908Z,9.13
2023-04-25T01:53:04.907Z,9.24
2023-04-25T01:55:31.480Z,8.63
2023-04-25T01:57:58.199Z,9.06
2023-04-25T02:00:24.825Z,9.17
2023-04-25T02:02:51.929Z,9.44
2023-04-25T02:05:18.793Z,8.46
2023-04-25T02:07:45.706Z,9.28
2023-04-25T02:10:12.292Z,9.05
2023-04-25T02:12:38.894Z,9.12
2023-04-25T02:15:06.169Z,9.00
2023-04-25T02:17:32.824Z,9.20
2023-04-25T02:19:59.405Z,8.99
2023-04-25T02:22:26.278Z,8.94
2023-04-25T02:24:52.916Z,9.16
2023-04-25T02:27:19.495Z,8.70
2023-04-25T02:29:46.088Z,9.27
2023-04-25T02:32:12.711Z,9.20
2023-04-25T02:34:39.401Z,7.54
2023-04-25T02:37:06.035Z,9.33
2023-04-25T02:39:32.637Z,8.66
2023-04-25T02:41:59.226Z,8.28
2023-04-25T02:44:25.960Z,9.10
2023-04-25T02:46:52.593Z,8.74
2023-04-25T02:49:19.217Z,9.34
2023-04-25T02:51:45.836Z,9.28
2023-04-25T02:54:12.414Z,8.49
2023-04-25T02:56:39.142Z,9.21
2023-04-25T02:59:05.987Z,8.72
2023-04-25T03:01:32.642Z,9.20
2023-04-25T03:03:59.272Z,8.72
2023-04-25T03:06:26.016Z,8.96
2023-04-25T03:08:52.643Z,9.03
2023-04-25T03:11:21.336Z,8.53
2023-04-25T03:13:48.427Z,8.13
2023-04-25T03:16:15.399Z,8.51
2023-04-25T03:18:42.062Z,9.05
2023-04-25T03:21:08.667Z,7.10
2023-04-25T03:23:35.383Z,8.52
2023-04-25T03:26:02.009Z,8.36
2023-04-25T03:28:28.972Z,8.81
2023-04-25T03:30:55.661Z,8.69
2023-04-25T03:33:22.744Z,8.10
2023-04-25T03:35:50.934Z,8.37
2023-04-25T03:38:18.158Z,7.57
2023-04-25T03:40:44.740Z,8.50
2023-04-25T03:43:12.342Z,7.75
2023-04-25T03:45:38.985Z,7.47
2023-04-25T03:48:06.030Z,7.65
2023-04-25T03:50:32.728Z,7.74
2023-04-25T03:52:59.338Z,8.07
2023-04-25T03:55:25.959Z,7.43
2023-04-25T03:57:52.662Z,7.48
2023-04-25T04:00:19.370Z,7.69
2023-04-25T04:02:46.192Z,7.79
2023-04-25T04:05:13.579Z,7.64
2023-04-25T04:07:41.238Z,7.81
2023-04-25T04:10:08.666Z,8.02
2023-04-25T04:12:35.497Z,7.72
2023-04-25T04:15:04.632Z,7.93
2023-04-25T04:17:31.480Z,7.98
2023-04-25T04:19:58.187Z,7.27
2023-04-25T04:22:24.847Z,7.21
2023-04-25T04:24:51.851Z,7.03
2023-04-25T04:27:19.410Z,6.43
2023-04-25T04:29:46.959Z,7.61
2023-04-25T04:32:14.570Z,7.16
2023-04-25T04:34:42.298Z,7.27
2023-04-25T04:37:09.137Z,7.03
2023-04-25T04:39:36.125Z,7.34
2023-04-25T04:42:02.792Z,7.87
2023-04-25T04:44:35.443Z,7.45
2023-04-25T04:47:02.960Z,7.37
2023-04-25T04:49:29.810Z,6.39
2023-04-25T04:51:58.385Z,7.99
2023-04-25T04:54:26.985Z,5.88
2023-04-25T04:56:53.805Z,7.92
2023-04-25T04:59:20.815Z,7.73
2023-04-25T05:01:48.050Z,7.95
2023-04-25T05:04:14.814Z,6.86
2023-04-25T05:06:41.572Z,7.36
2023-04-25T05:09:08.160Z,7.89
2023-04-25T05:11:34.784Z,5.96
2023-04-25T05:14:01.580Z,7.63
2023-04-25T05:16:28.444Z,7.67
2023-04-25T05:18:55.107Z,8.00
2023-04-25T05:21:21.765Z,7.54
2023-04-25T05:23:48.469Z,8.39
2023-04-25T05:26:15.252Z,8.06
2023-04-25T05:28:42.684Z,8.04
2023-04-25T05:31:10.982Z,8.24
2023-04-25T05:33:37.585Z,7.58
2023-04-25T05:36:04.598Z,7.42
2023-04-25T05:38:33.249Z,7.39
2023-04-25T05:41:01.554Z,7.57
2023-04-25T05:43:28.168Z,7.46
2023-04-25T05:45:54.877Z,7.79
2023-04-25T05:48:21.596Z,6.95
2023-04-25T05:50:48.251Z,7.67
2023-04-25T05:53:14.889Z,7.76
2023-04-25T05:55:41.494Z,7.60
2023-04-25T05:58:08.270Z,7.75
2023-04-25T06:00:35.023Z,7.35
2023-04-25T06:03:02.502Z,7.75
2023-04-25T06:05:29.551Z,7.95
2023-04-25T06:07:56.343Z,8.24
2023-04-25T06:10:23.844Z,8.42
2023-04-25T06:12:50.459Z,8.11
2023-04-25T06:15:28.234Z,8.20
2023-04-25T06:17:55.621Z,6.53
2023-04-25T06:20:24.324Z,7.63
2023-04-25T06:22:52.629Z,8.26
2023-04-25T06:25:19.443Z,8.49
2023-04-25T06:27:46.031Z,8.60
2023-04-25T06:30:13.220Z,8.68
2023-04-25T06:32:40.306Z,8.05
2023-04-25T06:35:07.381Z,8.43
2023-04-25T06:37:34.075Z,9.08
2023-04-25T06:40:00.720Z,8.20
2023-04-25T06:42:27.329Z,8.70
2023-04-25T06:44:53.994Z,8.86
2023-04-25T06:47:20.851Z,8.08
2023-04-25T06:49:47.546Z,8.88
2023-04-25T06:52:14.230Z,7.57
2023-04-25T06:54:40.863Z,8.87
2023-04-25T06:57:07.567Z,9.07
2023-04-25T06:59:34.252Z,8.53
2023-04-25T07:02:00.891Z,7.84
2023-04-25T07:04:27.773Z,8.75
2023-04-25T07:06:54.558Z,9.08
2023-04-25T07:09:21.244Z,8.42
2023-04-25T07:11:47.908Z,9.19
2023-04-25T07:14:14.639Z,8.53
2023-04-25T07:16:41.430Z,9.25
2023-04-25T07:19:08.261Z,8.55
2023-04-25T07:21:35.199Z,9.36
2023-04-25T07:24:01.869Z,9.08
2023-04-25T07:26:28.506Z,8.76
2023-04-25T07:28:55.693Z,7.76
2023-04-25T07:31:23.023Z,9.06
2023-04-25T07:33:49.659Z,8.72
2023-04-25T07:36:16.577Z,9.47
2023-04-25T07:38:43.267Z,9.88
2023-04-25T07:41:09.962Z,10.02
2023-04-25T07:43:36.597Z,9.87
2023-04-25T07:46:03.832Z,8.60
2023-04-25T07:48:30.789Z,9.69
2023-04-25T07:50:57.437Z,8.40
2023-04-25T07:53:24.061Z,9.59
2023-04-25T07:55:51.433Z,9.70
2023-04-25T07:58:22.252Z,9.33
2023-04-25T08:00:49.583Z,9.67
2023-04-25T08:03:16.557Z,8.46
2023-04-25T08:05:43.629Z,9.49
2023-04-25T08:08:10.393Z,9.41
2023-04-25T08:10:37.232Z,9.78
2023-04-25T08:13:04.077Z,10.16
2023-04-25T08:15:30.828Z,10.09
2023-04-25T08:17:57.534Z,10.05
2023-04-25T08:20:24.274Z,10.30
2023-04-25T08:22:50.932Z,9.92
2023-04-25T08:25:17.574Z,10.60
2023-04-25T08:27:44.600Z,10.61
2023-04-25T08:30:11.464Z,11.01
2023-04-25T08:32:39.957Z,10.86
2023-04-25T08:35:07.756Z,10.80
2023-04-25T08:37:34.402Z,11.27
2023-04-25T08:40:01.085Z,10.84
2023-04-25T08:42:28.258Z,10.67
2023-04-25T08:44:55.979Z,10.99
2023-04-25T08:47:23.567Z,9.35
2023-04-25T08:49:50.600Z,10.43
2023-04-25T08:52:17.271Z,10.46
2023-04-25T08:54:45.535Z,10.37
2023-04-25T08:57:12.364Z,10.11
2023-04-25T08:59:40.037Z,10.40
2023-04-25T09:02:07.122Z,10.18
2023-04-25T09:04:33.726Z,10.30
2023-04-25T09:07:00.500Z,10.28
2023-04-25T09:09:27.109Z,10.02
2023-04-25T09:11:53.774Z,9.95
2023-04-25T09:14:21.827Z,10.53
2023-04-25T09:16:58.833Z,10.41
2023-04-25T09:22:01.668Z,9.75
2023-04-25T09:24:33.083Z,10.98
2023-04-25T09:26:59.698Z,11.57
2023-04-25T09:29:38.890Z,10.49
2023-04-25T09:32:19.715Z,11.82
2023-04-25T09:34:56.845Z,11.01
2023-04-25T09:37:32.842Z,11.70
2023-04-25T09:40:01.364Z,10.85
2023-04-25T09:42:29.999Z,11.63
2023-04-25T09:44:57.121Z,11.19
2023-04-25T09:47:24.886Z,11.60
2023-04-25T09:49:52.179Z,11.21
2023-04-25T09:52:25.687Z,11.20
2023-04-25T09:54:53.056Z,11.52
2023-04-25T09:57:22.065Z,10.86
2023-04-25T09:59:55.907Z,11.75
2023-04-25T10:02:26.577Z,11.65
2023-04-25T10:04:57.057Z,11.56
2023-04-25T10:07:29.283Z,11.68
2023-04-25T10:10:00.901Z,11.91
2023-04-25T10:12:27.708Z,12.17
2023-04-25T10:14:54.293Z,12.10
2023-04-25T10:17:21.170Z,11.80
2023-04-25T10:19:51.417Z,12.08
2023-04-25T10:22:20.076Z,10.70
2023-04-25T10:24:47.550Z,12.11
2023-04-25T10:27:14.251Z,12.09
2023-04-25T10:29:41.157Z,12.30
2023-04-25T10:32:07.845Z,12.54
2023-04-25T10:34:47.651Z,11.14
2023-04-25T10:37:14.484Z,12.45
2023-04-25T10:39:42.312Z,12.17
2023-04-25T10:42:09.132Z,11.06
2023-04-25T10:44:35.923Z,12.44
2023-04-25T10:47:04.591Z,12.40
2023-04-25T10:49:38.397Z,11.09
2023-04-25T10:52:24.025Z,12.30
2023-04-25T10:54:57.676Z,11.41
2023-04-25T10:57:44.410Z,12.29
2023-04-25T11:00:16.450Z,11.95
2023-04-25T11:02:53.333Z,12.16
2023-04-25T11:05:23.518Z,12.15
2023-04-25T11:08:06.577Z,11.86
2023-04-25T11:10:37.595Z,11.67
2023-04-25T11:13:04.306Z,12.31
2023-04-25T11:15:31.109Z,11.89
2023-04-25T11:17:57.922Z,12.08
2023-04-25T11:20:27.054Z,12.01
2023-04-25T11:22:53.973Z,10.70
2023-04-25T11:25:21.260Z,11.58
2023-04-25T11:27:52.466Z,11.29
2023-04-25T11:30:19.633Z,11.45
2023-04-25T11:32:46.587Z,11.41
2023-04-25T11:35:13.461Z,11.17
2023-04-25T11:37:41.068Z,11.46
2023-04-25T11:40:09.014Z,10.82
2023-04-25T11:42:35.668Z,11.84
2023-04-25T11:45:02.263Z,11.69
2023-04-25T11:47:33.091Z,11.96
2023-04-25T11:50:03.995Z,12.00
2023-04-25T11:53:00.044Z,12.35
2023-04-25T11:55:27.460Z,11.67
2023-04-25T11:57:54.093Z,11.99
2023-04-25T12:00:21.882Z,12.52
2023-04-25T12:02:52.111Z,12.46
2023-04-25T12:07:48.503Z,12.82
2023-04-25T12:10:16.112Z,12.84
2023-04-25T12:12:43.472Z,13.32
2023-04-25T12:15:30.422Z,13.92
2023-04-25T12:17:57.058Z,13.23
2023-04-25T12:20:26.140Z,12.96
2023-04-25T12:22:53.074Z,13.72
2023-04-25T12:25:42.092Z,14.66
2023-04-25T12:28:15.268Z,14.74
2023-04-25T12:31:03.052Z,14.70
2023-04-25T12:33:40.602Z,13.73
2023-04-25T12:36:12.131Z,14.18
2023-04-25T12:38:42.786Z,13.15
2023-04-25T12:41:10.085Z,13.47
2023-04-25T12:43:36.677Z,14.00
2023-04-25T12:46:03.492Z,13.55
2023-04-25T12:48:30.173Z,11.97
2023-04-25T12:50:56.787Z,13.07
2023-04-25T12:53:24.084Z,13.62
2023-04-25T12:55:51.168Z,12.96
2023-04-25T12:58:19.136Z,11.80
2023-04-25T13:00:45.985Z,12.14
2023-04-25T13:03:13.560Z,12.82
2023-04-25T13:05:40.875Z,13.41
2023-04-25T13:08:07.594Z,13.24
2023-04-25T13:10:35.104Z,13.65
2023-04-25T13:13:02.503Z,13.58
2023-04-25T13:15:29.170Z,13.62
2023-04-25T13:17:57.212Z,13.23
2023-04-25T13:20:24.274Z,13.21
2023-04-25T13:22:54.127Z,13.36
2023-04-25T13:25:20.779Z,12.75
2023-04-25T13:27:47.595Z,13.02
2023-04-25T13:30:14.358Z,13.37
2023-04-25T13:32:41.174Z,13.38
2023-04-25T13:35:10.864Z,13.38
2023-04-25T13:37:38.286Z,13.31
2023-04-25T13:40:06.800Z,13.51
2023-04-25T13:42:33.670Z,13.64
2023-04-25T13:45:00.279Z,13.75
2023-04-25T13:47:27.046Z,13.83
2023-04-25T13:49:53.658Z,13.27
2023-04-25T13:52:20.502Z,13.51
2023-04-25T13:54:48.054Z,13.36
2023-04-25T13:57:14.754Z,13.33
2023-04-25T13:59:42.745Z,13.51
2023-04-25T14:02:09.395Z,12.65
2023-04-25T14:04:36.098Z,12.61
2023-04-25T14:07:03.878Z,12.54
2023-04-25T14:09:30.640Z,12.69
2023-04-25T14:11:57.462Z,12.52
2023-04-25T14:14:24.594Z,12.07
2023-04-25T14:16:51.466Z,12.23
2023-04-25T14:19:21.597Z,10.95
2023-04-25T14:21:48.924Z,12.16
2023-04-25T14:24:15.890Z,12.08
2023-04-25T14:26:43.485Z,11.66
2023-04-25T14:29:10.245Z,11.93
2023-04-25T14:31:36.888Z,12.19
2023-04-25T14:34:03.685Z,12.01
2023-04-25T14:36:31.859Z,12.04
2023-04-25T14:38:58.637Z,12.31
2023-04-25T14:41:26.017Z,11.98
2023-04-25T14:43:53.994Z,11.67
2023-04-25T14:46:21.590Z,11.51
2023-04-25T14:48:48.639Z,11.42
2023-04-25T14:51:15.601Z,11.80
2023-04-25T14:53:42.669Z,11.88
2023-04-25T14:56:09.934Z,11.33
2023-04-25T14:58:36.627Z,11.43
2023-04-25T15:01:03.375Z,10.56
2023-04-25T15:03:30.418Z,11.58
2023-04-25T15:05:57.283Z,11.91
2023-04-25T15:08:23.905Z,11.04
2023-04-25T15:10:51.511Z,11.34
2023-04-25T15:13:19.490Z,10.92
2023-04-25T15:15:52.098Z,9.92
2023-04-25T15:18:23.062Z,11.67
2023-04-25T15:20:50.331Z,11.58
2023-04-25T15:23:17.768Z,11.40
2023-04-25T15:25:44.403Z,11.70
2023-04-25T15:28:11.076Z,11.72
2023-04-25T15:30:38.013Z,11.44
2023-04-25T15:33:05.217Z,11.98
2023-04-25T15:35:31.865Z,10.19
2023-04-25T15:37:58.620Z,12.31
2023-04-25T15:40:25.480Z,12.32
2023-04-25T15:42:52.659Z,12.13
2023-04-25T15:45:28.398Z,12.32
2023-04-25T15:47:56.885Z,12.00
2023-04-25T15:50:23.739Z,12.30
2023-04-25T15:52:50.786Z,12.24
2023-04-25T15:55:18.578Z,12.23
2023-04-25T15:57:45.570Z,12.38
2023-04-25T16:00:13.600Z,11.62
2023-04-25T16:02:40.935Z,12.25
2023-04-25T16:05:09.117Z,10.91
2023-04-25T16:07:36.330Z,12.34
2023-04-25T16:10:03.182Z,11.95
2023-04-25T16:12:31.186Z,11.31
2023-04-25T16:14:58.302Z,11.27
2023-04-25T16:17:25.681Z,10.37
2023-04-25T16:19:52.289Z,11.23
2023-04-25T16:22:18.998Z,11.26
2023-04-25T16:24:45.631Z,10.61
2023-04-25T16:27:12.510Z,10.39
2023-04-25T16:29:39.261Z,10.86
2023-04-25T16:32:06.228Z,10.56
2023-04-25T16:34:32.913Z,11.12
2023-04-25T16:36:59.643Z,11.65
2023-04-25T16:39:26.319Z,11.18
2023-04-25T16:41:53.238Z,10.78
2023-04-25T16:44:19.932Z,10.56
2023-04-25T16:46:46.809Z,11.14
2023-04-25T16:49:13.512Z,10.56
2023-04-25T16:51:40.236Z,9.66
2023-04-25T16:54:06.975Z,10.77
2023-04-25T16:56:33.682Z,10.63
2023-04-25T16:59:00.490Z,10.65
2023-04-25T17:01:27.126Z,10.56
2023-04-25T17:03:53.924Z,10.38
2023-04-25T17:06:20.849Z,8.59
2023-04-25T17:08:47.437Z,10.30
2023-04-25T17:11:14.152Z,10.10
2023-04-25T17:13:43.430Z,10.35
2023-04-25T17:16:12.205Z,10.55
2023-04-25T17:18:41.741Z,9.64
2023-04-25T17:21:08.984Z,9.99
2023-04-25T17:23:36.083Z,8.73
2023-04-25T17:26:02.692Z,9.59
2023-04-25T17:28:29.474Z,10.39
2023-04-25T17:30:57.495Z,8.61
2023-04-25T17:33:27.062Z,10.15
2023-04-25T17:35:54.419Z,10.07
2023-04-25T17:38:21.120Z,10.29
2023-04-25T17:40:47.917Z,9.91
2023-04-25T17:43:14.627Z,8.18
2023-04-25T17:45:41.406Z,10.13
2023-04-25T17:48:08.555Z,8.60
2023-04-25T17:50:35.241Z,9.80
2023-04-25T17:53:05.062Z,10.27
2023-04-25T17:55:31.728Z,9.76
2023-04-25T17:57:58.348Z,9.76
2023-04-25T18:00:25.079Z,9.62
2023-04-25T18:02:52.304Z,10.08
2023-04-25T18:05:19.339Z,9.72
2023-04-25T18:07:46.480Z,9.42
2023-04-25T18:10:14.474Z,9.44
2023-04-25T18:12:41.057Z,8.90
2023-04-25T18:15:08.297Z,9.10
2023-04-25T18:17:39.954Z,8.84
2023-04-25T18:20:08.450Z,9.31
2023-04-25T18:22:35.258Z,8.98
2023-04-25T18:25:04.573Z,9.09
2023-04-25T18:27:33.026Z,9.06
2023-04-25T18:29:59.861Z,8.12
2023-04-25T18:32:28.474Z,8.63
2023-04-25T18:34:55.867Z,8.17
2023-04-25T18:37:22.570Z,7.87
2023-04-25T18:39:49.204Z,7.02
2023-04-25T18:42:16.239Z,8.53
2023-04-25T18:44:43.048Z,8.24
2023-04-25T18:47:10.366Z,7.24
2023-04-25T18:49:37.702Z,7.95
2023-04-25T18:52:05.021Z,8.00
2023-04-25T18:54:32.273Z,7.33
2023-04-25T18:57:01.273Z,7.81
2023-04-25T18:59:28.061Z,7.60
2023-04-25T19:01:54.772Z,7.73
2023-04-25T19:04:21.943Z,7.22
2023-04-25T19:06:52.185Z,7.02
2023-04-25T19:09:18.940Z,6.78
2023-04-25T19:11:45.873Z,7.69
2023-04-25T19:14:13.837Z,7.25
2023-04-25T19:16:40.716Z,8.00
2023-04-25T19:19:09.217Z,7.50
2023-04-25T19:21:36.334Z,7.14
2023-04-25T19:24:04.806Z,7.80
2023-04-25T19:26:31.894Z,7.82
2023-04-25T19:29:09.406Z,7.98
2023-04-25T19:31:36.928Z,7.72
2023-04-25T19:34:07.658Z,7.42
2023-04-25T19:36:34.467Z,7.53
2023-04-25T19:39:02.602Z,8.18
2023-04-25T19:41:29.780Z,7.92
2023-04-25T19:43:56.491Z,7.26
2023-04-25T19:46:23.736Z,7.89
2023-04-25T19:48:50.601Z,8.17
2023-04-25T19:51:18.908Z,8.05
2023-04-25T19:53:45.705Z,8.03
2023-04-25T19:56:12.382Z,8.31
2023-04-25T19:58:39.109Z,8.06
2023-04-25T20:01:05.764Z,8.41
2023-04-25T20:03:32.691Z,8.15
2023-04-25T20:05:59.480Z,7.31
2023-04-25T20:08:26.303Z,8.41
2023-04-25T20:10:52.917Z,7.99
2023-04-25T20:13:19.511Z,7.66
2023-04-25T20:15:46.190Z,8.29
2023-04-25T20:18:12.925Z,8.01
2023-04-25T20:20:39.663Z,7.46
2023-04-25T20:23:06.979Z,8.05
2023-04-25T20:25:33.560Z,7.94
2023-04-25T20:28:00.160Z,7.48
2023-04-25T20:30:26.921Z,5.70
2023-04-25T20:32:53.548Z,7.74
2023-04-25T20:35:22.792Z,8.14
2023-04-25T20:37:50.665Z,7.51
2023-04-25T20:40:17.285Z,7.72
2023-04-25T20:42:43.885Z,7.75
2023-04-25T20:45:13.949Z,7.61
2023-04-25T20:47:41.328Z,7.46
2023-04-25T20:50:08.791Z,7.36
2023-04-25T20:52:37.223Z,7.47
2023-04-25T20:55:05.391Z,7.60
2023-04-25T20:57:32.366Z,6.80
2023-04-25T20:59:59.094Z,7.26
2023-04-25T21:02:25.798Z,7.30
2023-04-25T21:04:52.482Z,6.66
2023-04-25T21:07:19.593Z,7.34
2023-04-25T21:09:46.253Z,7.77
2023-04-25T21:12:12.885Z,7.39
2023-04-25T21:14:39.569Z,7.35
2023-04-25T21:17:06.271Z,7.25
2023-04-25T21:19:33.392Z,7.19
2023-04-25T21:22:00.362Z,7.18
2023-04-25T21:24:27.403Z,7.17
2023-04-25T21:26:54.118Z,7.07
2023-04-25T21:29:20.812Z,7.40
2023-04-25T21:31:47.509Z,7.27
2023-04-25T21:34:14.186Z,7.69
2023-04-25T21:36:41.413Z,7.36
2023-04-25T21:39:08.064Z,7.22
2023-04-25T21:41:34.870Z,6.37
2023-04-25T21:44:01.627Z,6.24
2023-04-25T21:46:28.498Z,7.08
2023-04-25T21:48:55.389Z,6.06
2023-04-25T21:51:22.848Z,7.18
2023-04-25T21:53:49.523Z,5.87
2023-04-25T21:56:16.212Z,7.07
2023-04-25T21:58:42.914Z,7.22
2023-04-25T22:01:10.026Z,6.46
2023-04-25T22:03:36.793Z,7.10
2023-04-25T22:06:04.085Z,6.77
2023-04-25T22:08:30.714Z,5.35
2023-04-25T22:10:57.400Z,5.53
2023-04-25T22:13:24.106Z,6.87
2023-04-25T22:15:50.936Z,6.78
2023-04-25T22:18:18.132Z,7.22
2023-04-25T22:20:45.151Z,7.29
2023-04-25T22:23:14.883Z,7.16
2023-04-25T22:25:42.069Z,6.80
2023-04-25T22:28:08.763Z,7.00
2023-04-25T22:30:35.411Z,6.73
2023-04-25T22:33:02.178Z,6.84
2023-04-25T22:35:28.907Z,6.91
2023-04-25T22:37:55.601Z,6.84
2023-04-25T22:40:22.272Z,6.59
2023-04-25T22:42:49.028Z,6.85
2023-04-25T22:45:16.147Z,6.87
2023-04-25T22:47:43.194Z,6.24
2023-04-25T22:50:13.967Z,6.36
2023-04-25T22:52:42.440Z,6.68
2023-04-25T22:55:10.812Z,6.98
2023-04-25T22:57:39.051Z,6.81
2023-04-25T23:00:10.848Z,6.75
2023-04-25T23:02:37.522Z,6.80
2023-04-25T23:05:06.954Z,6.25
2023-04-25T23:07:35.071Z,6.97
2023-04-25T23:10:01.846Z,6.58
2023-04-25T23:12:28.679Z,6.59
2023-04-25T23:14:55.353Z,6.26
2023-04-25T23:17:22.527Z,6.61
2023-04-25T23:19:49.197Z,5.98
2023-04-25T23:22:15.895Z,5.14
2023-04-25T23:24:42.596Z,7.02
2023-04-25T23:27:09.360Z,6.50
2023-04-25T23:29:36.171Z,6.34
2023-04-25T23:32:02.780Z,5.71
2023-04-25T23:34:32.693Z,6.62
2023-04-25T23:37:01.485Z,6.64
2023-04-25T23:39:28.377Z,6.55
2023-04-25T23:41:55.057Z,6.90
2023-04-25T23:44:22.285Z,5.06
2023-04-25T23:46:49.579Z,6.41
2023-04-25T23:49:16.238Z,6.31
2023-04-25T23:51:43.114Z,6.68
2023-04-25T23:54:09.767Z,6.43
2023-04-25T23:56:36.433Z,6.61
2023-04-25T23:59:03.838Z,5.90
